createdAt,value
2022-12-27T00:01:31.126Z,101977.47
2022-12-27T00:03:57.671Z,101970.44
2022-12-27T00:06:26.266Z,101973.81
2022-12-27T00:08:53.693Z,101969.75
2022-12-27T00:11:23.080Z,101970.59
2022-12-27T00:13:50.034Z,101965.38
2022-12-27T00:16:19.518Z,101968.91
2022-12-27T00:18:47.281Z,101971.03
2022-12-27T00:21:14.193Z,101971.03
2022-12-27T00:23:43.449Z,101968.47
2022-12-27T00:26:18.576Z,101966.50
2022-12-27T00:28:45.682Z,101975.09
2022-12-27T00:31:13.180Z,101965.81
2022-12-27T00:33:41.394Z,101978.31
2022-12-27T00:36:11.390Z,101973.53
2022-12-27T00:38:37.837Z,101980.31
2022-12-27T00:41:05.027Z,101980.00
2022-12-27T00:43:31.577Z,101980.72
2022-12-27T00:45:58.238Z,101984.41
2022-12-27T00:48:25.553Z,101989.03
2022-12-27T00:50:58.376Z,101991.69
2022-12-27T00:53:24.858Z,101991.56
2022-12-27T00:55:51.251Z,101995.22
2022-12-27T00:58:17.674Z,101999.16
2022-12-27T01:00:44.350Z,102011.44
2022-12-27T01:03:10.871Z,102000.16
2022-12-27T01:05:37.572Z,102006.09
2022-12-27T01:08:05.174Z,102014.22
2022-12-27T01:10:32.116Z,102009.03
2022-12-27T01:13:01.204Z,102014.94
2022-12-27T01:15:28.051Z,102014.94
2022-12-27T01:17:54.433Z,102015.22
2022-12-27T01:20:21.735Z,102026.75
2022-12-27T01:22:48.139Z,102025.06
2022-12-27T01:25:14.495Z,102020.56
2022-12-27T01:27:40.851Z,102018.88
2022-12-27T01:30:08.267Z,102030.28
2022-12-27T01:32:34.988Z,102026.59
2022-12-27T01:35:01.852Z,102024.78
2022-12-27T01:37:29.065Z,102040.13
2022-12-27T01:39:56.457Z,102043.06
2022-12-27T01:42:41.412Z,102048.28
2022-12-27T01:45:16.380Z,102036.59
2022-12-27T01:47:46.459Z,102058.69
2022-12-27T01:50:27.656Z,102048.69
2022-12-27T01:53:14.483Z,102046.41
2022-12-27T01:55:58.651Z,102042.44
2022-12-27T01:58:33.348Z,102055.22
2022-12-27T02:00:59.824Z,102058.75
2022-12-27T02:03:36.599Z,102058.38
2022-12-27T02:06:05.516Z,102067.50
2022-12-27T02:08:41.231Z,102070.16
2022-12-27T02:11:09.297Z,102082.72
2022-12-27T02:13:41.156Z,102079.63
2022-12-27T02:16:18.603Z,102080.34
2022-12-27T02:18:46.525Z,102084.28
2022-12-27T02:21:47.479Z,102084.72
2022-12-27T02:24:44.769Z,102088.81
2022-12-27T02:27:32.141Z,102089.38
2022-12-27T02:30:05.141Z,102093.84
2022-12-27T02:33:00.761Z,102095.41
2022-12-27T02:35:35.889Z,102098.66
2022-12-27T02:38:20.433Z,102111.19
2022-12-27T02:41:06.733Z,102105.25
2022-12-27T02:43:51.887Z,102115.97
2022-12-27T02:46:41.758Z,102104.69
2022-12-27T02:49:48.119Z,102113.28
2022-12-27T02:53:01.564Z,102117.53
2022-12-27T02:55:41.202Z,102115.41
2022-12-27T02:58:55.177Z,102116.28
2022-12-27T03:02:11.705Z,102122.06
2022-12-27T03:05:19.443Z,102119.91
2022-12-27T03:08:05.141Z,102124.56
2022-12-27T03:11:07.472Z,102118.22
2022-12-27T03:14:03.504Z,102114.84
2022-12-27T03:16:41.474Z,102118.47
2022-12-27T03:19:40.448Z,102113.28
2022-12-27T03:22:28.374Z,102108.78
2022-12-27T03:25:15.664Z,102115.22
2022-12-27T03:28:06.551Z,102120.28
2022-12-27T03:30:52.484Z,102122.56
2022-12-27T03:33:19.365Z,102131.16
2022-12-27T03:36:31.953Z,102132.00
2022-12-27T03:39:13.778Z,102136.34
2022-12-27T03:42:05.006Z,102130.72
2022-12-27T03:44:31.470Z,102136.19
2022-12-27T03:47:00.777Z,102138.88
2022-12-27T03:49:44.915Z,102136.59
2022-12-27T03:52:17.309Z,102136.34
2022-12-27T03:54:46.746Z,102142.69
2022-12-27T03:57:22.817Z,102147.16
2022-12-27T03:59:49.306Z,102154.47
2022-12-27T04:02:16.298Z,102146.03
2022-12-27T04:04:42.799Z,102149.44
2022-12-27T04:07:12.517Z,102142.13
2022-12-27T04:09:57.570Z,102143.53
2022-12-27T04:12:42.381Z,102142.84
2022-12-27T04:15:27.631Z,102152.38
2022-12-27T04:18:12.463Z,102148.72
2022-12-27T04:20:57.600Z,102155.56
2022-12-27T04:23:42.937Z,102159.81
2022-12-27T04:26:27.735Z,102152.78
2022-12-27T04:29:12.542Z,102162.47
2022-12-27T04:31:57.340Z,102163.41
2022-12-27T04:34:42.395Z,102160.06
2022-12-27T04:37:14.610Z,102163.34
2022-12-27T04:39:41.962Z,102166.75
2022-12-27T04:42:28.412Z,102158.00
2022-12-27T04:45:15.385Z,102167.41
2022-12-27T04:48:00.765Z,102160.47
2022-12-27T04:50:49.311Z,102169.50
2022-12-27T04:53:39.683Z,102172.16
2022-12-27T04:56:06.685Z,102160.88
2022-12-27T04:58:33.620Z,102166.94
2022-12-27T05:01:21.312Z,102168.50
2022-12-27T05:03:51.434Z,102164.00
2022-12-27T05:06:18.599Z,102176.25
2022-12-27T05:09:04.008Z,102182.44
2022-12-27T05:11:48.916Z,102174.03
2022-12-27T05:14:15.897Z,102176.25
2022-12-27T05:16:44.312Z,102177.81
2022-12-27T05:19:13.473Z,102182.19
2022-12-27T05:22:05.072Z,102176.56
2022-12-27T05:24:50.913Z,102179.38
2022-12-27T05:27:17.767Z,102178.69
2022-12-27T05:29:44.329Z,102186.38
2022-12-27T05:32:13.294Z,102188.47
2022-12-27T05:34:40.429Z,102196.09
2022-12-27T05:37:06.989Z,102194.84
2022-12-27T05:39:33.365Z,102204.44
2022-12-27T05:41:59.761Z,102201.75
2022-12-27T05:44:26.377Z,102202.75
2022-12-27T05:46:54.303Z,102204.69
2022-12-27T05:49:21.894Z,102205.94
2022-12-27T05:51:48.636Z,102205.94
2022-12-27T05:54:15.068Z,102200.59
2022-12-27T05:56:41.797Z,102207.91
2022-12-27T05:59:08.249Z,102206.53
2022-12-27T06:01:35.162Z,102203.84
2022-12-27T06:04:01.655Z,102214.78
2022-12-27T06:06:28.855Z,102221.28
2022-12-27T06:08:55.384Z,102224.78
2022-12-27T06:11:21.981Z,102229.16
2022-12-27T06:13:51.175Z,102226.72
2022-12-27T06:16:18.139Z,102231.97
2022-12-27T06:18:44.721Z,102232.91
2022-12-27T06:21:17.033Z,102234.63
2022-12-27T06:23:45.019Z,102243.50
2022-12-27T06:26:15.458Z,102243.63
2022-12-27T06:28:41.890Z,102233.91
2022-12-27T06:31:09.532Z,102241.06
2022-12-27T06:33:36.021Z,102235.16
2022-12-27T06:36:07.446Z,102249.94
2022-12-27T06:38:33.860Z,102256.59
2022-12-27T06:41:01.915Z,102246.47
2022-12-27T06:43:29.906Z,102258.91
2022-12-27T06:45:57.897Z,102266.91
2022-12-27T06:48:24.503Z,102269.00
2022-12-27T06:50:51.075Z,102258.31
2022-12-27T06:53:17.522Z,102267.28
2022-12-27T06:55:43.958Z,102263.91
2022-12-27T06:58:10.319Z,102264.03
2022-12-27T07:00:37.201Z,102259.66
2022-12-27T07:03:04.386Z,102257.97
2022-12-27T07:05:30.831Z,102263.44
2022-12-27T07:07:58.668Z,102260.28
2022-12-27T07:10:25.958Z,102250.72
2022-12-27T07:12:52.354Z,102264.09
2022-12-27T07:15:18.785Z,102263.25
2022-12-27T07:17:45.191Z,102264.34
2022-12-27T07:20:12.036Z,102254.25
2022-12-27T07:22:38.465Z,102263.84
2022-12-27T07:25:05.552Z,102271.38
2022-12-27T07:27:35.841Z,102284.28
2022-12-27T07:30:03.604Z,102275.91
2022-12-27T07:32:29.966Z,102286.59
2022-12-27T07:34:56.413Z,102289.25
2022-12-27T07:37:23.720Z,102298.13
2022-12-27T07:39:50.149Z,102286.72
2022-12-27T07:42:16.564Z,102297.56
2022-12-27T07:44:42.994Z,102299.34
2022-12-27T07:47:09.413Z,102310.91
2022-12-27T07:49:35.809Z,102305.94
2022-12-27T07:52:02.179Z,102309.56
2022-12-27T07:54:28.633Z,102314.06
2022-12-27T07:56:55.116Z,102315.75
2022-12-27T07:59:22.302Z,102321.97
2022-12-27T08:02:04.306Z,102325.00
2022-12-27T08:04:32.136Z,102319.81
2022-12-27T08:07:19.622Z,102323.78
2022-12-27T08:09:47.742Z,102324.91
2022-12-27T08:12:14.832Z,102324.91
2022-12-27T08:14:41.934Z,102329.41
2022-12-27T08:17:28.700Z,102329.50
2022-12-27T08:19:56.025Z,102334.00
2022-12-27T08:22:23.873Z,102339.34
2022-12-27T08:24:51.020Z,102342.28
2022-12-27T08:27:22.752Z,102334.53
2022-12-27T08:29:49.409Z,102347.38
2022-12-27T08:32:15.911Z,102346.53
2022-12-27T08:34:42.351Z,102351.78
2022-12-27T08:37:08.940Z,102346.06
2022-12-27T08:39:35.412Z,102349.38
2022-12-27T08:42:01.911Z,102339.78
2022-12-27T08:44:28.263Z,102354.94
2022-12-27T08:46:54.726Z,102346.00
2022-12-27T08:49:21.112Z,102336.84
2022-12-27T08:51:47.544Z,102335.03
2022-12-27T08:54:13.919Z,102331.13
2022-12-27T08:56:40.382Z,102334.03
2022-12-27T08:59:06.822Z,102338.16
2022-12-27T09:01:33.277Z,102336.59
2022-12-27T09:03:59.808Z,102334.53
2022-12-27T09:06:27.612Z,102338.66
2022-12-27T09:08:55.843Z,102336.31
2022-12-27T09:11:25.600Z,102341.41
2022-12-27T09:13:52.274Z,102351.63
2022-12-27T09:16:27.360Z,102350.78
2022-12-27T09:18:55.809Z,102355.13
2022-12-27T09:21:27.427Z,102352.09
2022-12-27T09:23:54.640Z,102352.31
2022-12-27T09:26:23.551Z,102354.13
2022-12-27T09:28:50.848Z,102362.84
2022-12-27T09:31:19.562Z,102351.94
2022-12-27T09:33:46.200Z,102358.75
2022-12-27T09:36:14.791Z,102348.66
2022-12-27T09:38:41.867Z,102359.13
2022-12-27T09:42:25.921Z,102360.97
2022-12-27T09:44:38.090Z,102359.72
2022-12-27T09:47:34.428Z,102346.72
2022-12-27T09:50:14.748Z,102351.16
2022-12-27T09:53:10.346Z,102357.69
2022-12-27T09:55:44.293Z,102341.09
2022-12-27T09:58:28.687Z,102344.97
2022-12-27T10:00:55.067Z,102350.06
2022-12-27T10:03:25.289Z,102351.25
2022-12-27T10:06:15.418Z,102362.75
2022-12-27T10:09:00.251Z,102376.56
2022-12-27T10:11:47.826Z,102371.84
2022-12-27T10:15:00.878Z,102375.69
2022-12-27T10:17:51.140Z,102367.91
2022-12-27T10:20:35.579Z,102369.28
2022-12-27T10:23:11.157Z,102370.53
2022-12-27T10:25:39.636Z,102363.16
2022-12-27T10:28:16.586Z,102364.56
2022-12-27T10:30:43.584Z,102358.88
2022-12-27T10:33:24.722Z,102367.44
2022-12-27T10:35:51.170Z,102370.75
2022-12-27T10:38:17.771Z,102378.50
2022-12-27T10:41:25.552Z,102371.72
2022-12-27T10:43:53.933Z,102365.91
2022-12-27T10:46:30.736Z,102369.97
2022-12-27T10:49:20.580Z,102360.38
2022-12-27T10:51:49.242Z,102356.53
2022-12-27T10:54:23.554Z,102367.53
2022-12-27T10:56:50.316Z,102374.94
2022-12-27T10:59:18.042Z,102373.53
2022-12-27T11:01:51.261Z,102368.19
2022-12-27T11:04:23.421Z,102376.94
2022-12-27T11:07:10.471Z,102369.16
2022-12-27T11:09:38.924Z,102371.78
2022-12-27T11:12:11.862Z,102367.00
2022-12-27T11:14:38.513Z,102357.22
2022-12-27T11:17:10.591Z,102365.66
2022-12-27T11:19:39.649Z,102363.56
2022-12-27T11:22:08.923Z,102368.72
2022-12-27T11:24:36.067Z,102365.06
2022-12-27T11:27:03.820Z,102365.78
2022-12-27T11:29:32.045Z,102359.91
2022-12-27T11:32:07.295Z,102366.50
2022-12-27T11:34:37.459Z,102356.63
2022-12-27T11:37:14.060Z,102361.72
2022-12-27T11:39:45.304Z,102365.66
2022-12-27T11:42:32.411Z,102368.19
2022-12-27T11:45:09.329Z,102361.47
2022-12-27T11:47:43.337Z,102355.00
2022-12-27T11:50:27.715Z,102348.34
2022-12-27T11:53:24.217Z,102353.25
2022-12-27T11:56:15.034Z,102339.47
2022-12-27T11:58:55.514Z,102347.06
2022-12-27T12:01:40.745Z,102352.28
2022-12-27T12:04:42.320Z,102331.53
2022-12-27T12:07:21.500Z,102332.44
2022-12-27T12:10:21.796Z,102325.44
2022-12-27T12:13:35.478Z,102328.09
2022-12-27T12:16:32.060Z,102316.22
2022-12-27T12:19:26.597Z,102303.28
2022-12-27T12:22:32.974Z,102303.19
2022-12-27T12:25:36.040Z,102298.22
2022-12-27T12:28:56.526Z,102293.25
2022-12-27T12:31:41.922Z,102288.22
2022-12-27T12:34:19.687Z,102280.91
2022-12-27T12:37:05.889Z,102269.34
2022-12-27T12:40:01.094Z,102272.00
2022-12-27T12:43:02.529Z,102255.25
2022-12-27T12:45:43.670Z,102249.19
2022-12-27T12:48:28.171Z,102248.06
2022-12-27T12:51:09.743Z,102246.69
2022-12-27T12:54:05.506Z,102241.50
2022-12-27T12:57:06.275Z,102242.22
2022-12-27T13:00:04.697Z,102237.13
2022-12-27T13:03:16.874Z,102235.84
2022-12-27T13:06:04.192Z,102226.50
2022-12-27T13:08:56.043Z,102219.75
2022-12-27T13:11:38.273Z,102214.13
2022-12-27T13:14:04.599Z,102212.59
2022-12-27T13:16:49.128Z,102211.75
2022-12-27T13:19:37.810Z,102206.00
2022-12-27T13:22:25.413Z,102204.47
2022-12-27T13:25:07.064Z,102196.03
2022-12-27T13:27:57.573Z,102203.63
2022-12-27T13:30:41.957Z,102200.94
2022-12-27T13:33:25.121Z,102198.69
2022-12-27T13:36:19.869Z,102183.75
2022-12-27T13:39:01.571Z,102188.25
2022-12-27T13:41:33.636Z,102184.78
2022-12-27T13:44:26.082Z,102178.97
2022-12-27T13:46:59.604Z,102176.84
2022-12-27T13:49:45.386Z,102168.66
2022-12-27T13:52:34.602Z,102164.59
2022-12-27T13:55:36.589Z,102165.31
2022-12-27T13:58:14.050Z,102167.00
2022-12-27T14:01:02.351Z,102159.25
2022-12-27T14:04:06.653Z,102161.66
2022-12-27T14:07:07.494Z,102157.25
2022-12-27T14:09:52.466Z,102143.19
2022-12-27T14:12:49.948Z,102145.28
2022-12-27T14:15:21.045Z,102145.13
2022-12-27T14:18:18.776Z,102149.94
2022-12-27T14:21:05.412Z,102153.19
2022-12-27T14:23:49.987Z,102149.50
2022-12-27T14:26:39.205Z,102141.19
2022-12-27T14:29:22.533Z,102145.97
2022-12-27T14:32:19.085Z,102143.03
2022-12-27T14:35:22.321Z,102137.69
2022-12-27T14:38:07.356Z,102126.56
2022-12-27T14:41:04.312Z,102123.44
2022-12-27T14:43:51.539Z,102106.53
2022-12-27T14:46:42.462Z,102103.84
2022-12-27T14:49:30.664Z,102100.03
2022-12-27T14:52:43.969Z,102098.22
2022-12-27T14:55:31.725Z,102104.56
2022-12-27T14:58:42.388Z,102109.50
2022-12-27T15:01:46.452Z,102113.00
2022-12-27T15:04:44.930Z,102117.78
2022-12-27T15:07:37.078Z,102111.88
2022-12-27T15:10:33.686Z,102114.13
2022-12-27T15:13:29.551Z,102118.06
2022-12-27T15:16:16.024Z,102121.91
2022-12-27T15:19:07.943Z,102125.56
2022-12-27T15:22:04.293Z,102121.16
2022-12-27T15:24:52.278Z,102124.84
2022-12-27T15:27:34.991Z,102119.34
2022-12-27T15:30:23.065Z,102126.69
2022-12-27T15:33:21.402Z,102123.00
2022-12-27T15:36:06.196Z,102121.44
2022-12-27T15:38:35.404Z,102119.34
2022-12-27T15:41:37.376Z,102114.69
2022-12-27T15:44:31.148Z,102122.44
2022-12-27T15:47:37.606Z,102116.25
2022-12-27T15:50:39.205Z,102105.69
2022-12-27T15:53:27.435Z,102108.78
2022-12-27T15:56:24.306Z,102109.63
2022-12-27T15:59:28.214Z,102105.38
2022-12-27T16:02:33.693Z,102119.34
2022-12-27T16:05:00.335Z,102114.97
2022-12-27T16:07:45.479Z,102105.38
2022-12-27T16:10:30.352Z,102104.28
2022-12-27T16:13:08.861Z,102099.34
2022-12-27T16:15:39.660Z,102095.66
2022-12-27T16:18:32.604Z,102099.91
2022-12-27T16:21:01.679Z,102091.59
2022-12-27T16:23:42.446Z,102098.91
2022-12-27T16:26:19.551Z,102087.22
2022-12-27T16:29:13.778Z,102088.47
2022-12-27T16:31:45.872Z,102077.66
2022-12-27T16:34:28.949Z,102080.19
2022-12-27T16:36:58.247Z,102075.25
2022-12-27T16:39:43.117Z,102060.72
2022-12-27T16:42:09.886Z,102063.97
2022-12-27T16:44:53.497Z,102052.97
2022-12-27T16:47:32.075Z,102043.41
2022-12-27T16:50:17.569Z,102042.56
2022-12-27T16:52:56.202Z,102033.13
2022-12-27T16:56:06.820Z,102025.66
2022-12-27T16:58:36.937Z,102019.72
2022-12-27T17:01:25.648Z,102011.28
2022-12-27T17:03:54.477Z,102020.28
2022-12-27T17:06:32.544Z,102029.88
2022-12-27T17:09:08.709Z,102030.59
2022-12-27T17:11:55.295Z,102026.34
2022-12-27T17:14:33.541Z,102025.78
2022-12-27T17:17:08.643Z,102012.97
2022-12-27T17:19:38.102Z,102014.53
2022-12-27T17:22:07.287Z,102011.44
2022-12-27T17:24:33.990Z,102002.84
2022-12-27T17:27:24.501Z,101999.44
2022-12-27T17:30:11.680Z,101997.91
2022-12-27T17:32:56.911Z,101990.16
2022-12-27T17:35:28.995Z,101989.88
2022-12-27T17:38:10.579Z,101999.16
2022-12-27T17:40:55.621Z,101981.00
2022-12-27T17:43:59.757Z,101969.75
2022-12-27T17:46:54.920Z,101964.53
2022-12-27T17:49:30.986Z,101951.59
2022-12-27T17:52:18.620Z,101951.44
2022-12-27T17:55:03.932Z,101948.91
2022-12-27T17:57:48.779Z,101948.78
2022-12-27T18:00:24.902Z,101949.88
2022-12-27T18:02:55.077Z,101937.06
2022-12-27T18:05:27.634Z,101937.06
2022-12-27T18:08:07.137Z,101947.06
2022-12-27T18:10:36.512Z,101946.66
2022-12-27T18:13:06.956Z,101947.38
2022-12-27T18:15:36.448Z,101936.66
2022-12-27T18:18:06.751Z,101940.59
2022-12-27T18:20:38.393Z,101934.13
2022-12-27T18:23:05.371Z,101929.63
2022-12-27T18:25:36.355Z,101932.97
2022-12-27T18:28:21.220Z,101912.16
2022-12-27T18:31:00.351Z,101914.25
2022-12-27T18:33:56.586Z,101900.31
2022-12-27T18:36:33.616Z,101892.69
2022-12-27T18:39:08.308Z,101892.56
2022-12-27T18:41:39.169Z,101886.50
2022-12-27T18:44:21.447Z,101882.56
2022-12-27T18:46:54.765Z,101880.88
2022-12-27T18:49:31.669Z,101885.81
2022-12-27T18:51:58.433Z,101887.34
2022-12-27T18:54:27.580Z,101887.06
2022-12-27T18:56:57.523Z,101886.91
2022-12-27T18:59:28.685Z,101895.94
2022-12-27T19:01:57.620Z,101888.06
2022-12-27T19:04:32.241Z,101884.25
2022-12-27T19:07:11.942Z,101878.34
2022-12-27T19:09:43.060Z,101875.78
2022-12-27T19:12:15.485Z,101864.97
2022-12-27T19:14:46.030Z,101863.97
2022-12-27T19:17:20.877Z,101858.75
2022-12-27T19:19:50.727Z,101846.94
2022-12-27T19:22:42.443Z,101851.44
2022-12-27T19:25:19.970Z,101844.31
2022-12-27T19:27:57.192Z,101833.63
2022-12-27T19:30:44.689Z,101833.44
2022-12-27T19:33:26.771Z,101833.88
2022-12-27T19:35:54.020Z,101820.09
2022-12-27T19:38:24.699Z,101810.81
2022-12-27T19:40:59.532Z,101815.16
2022-12-27T19:43:37.784Z,101815.47
2022-12-27T19:46:04.499Z,101801.09
2022-12-27T19:48:30.961Z,101796.47
2022-12-27T19:50:59.136Z,101801.38
2022-12-27T19:53:34.210Z,101784.34
2022-12-27T19:56:02.774Z,101782.22
2022-12-27T19:58:30.672Z,101783.06
2022-12-27T20:00:57.632Z,101780.94
2022-12-27T20:03:24.773Z,101778.31
2022-12-27T20:06:12.442Z,101764.66
2022-12-27T20:08:44.633Z,101752.56
2022-12-27T20:11:18.126Z,101755.50
2022-12-27T20:13:44.798Z,101758.63
2022-12-27T20:16:13.196Z,101757.34
2022-12-27T20:18:41.106Z,101750.28
2022-12-27T20:21:12.963Z,101743.25
2022-12-27T20:23:39.357Z,101736.91
2022-12-27T20:26:06.012Z,101734.22
2022-12-27T20:28:32.932Z,101734.56
2022-12-27T20:31:07.077Z,101731.44
2022-12-27T20:33:33.572Z,101728.88
2022-12-27T20:36:00.438Z,101738.44
2022-12-27T20:38:26.848Z,101728.22
2022-12-27T20:40:55.661Z,101724.25
2022-12-27T20:43:22.121Z,101731.16
2022-12-27T20:45:50.169Z,101725.50
2022-12-27T20:48:16.780Z,101727.22
2022-12-27T20:50:43.232Z,101724.09
2022-12-27T20:53:10.696Z,101726.22
2022-12-27T20:55:37.096Z,101714.50
2022-12-27T20:58:03.808Z,101724.09
2022-12-27T21:00:30.236Z,101721.69
2022-12-27T21:02:57.079Z,101701.84
2022-12-27T21:05:23.611Z,101703.25
2022-12-27T21:07:50.057Z,101694.78
2022-12-27T21:10:16.488Z,101696.75
2022-12-27T21:12:42.934Z,101687.78
2022-12-27T21:15:10.741Z,101690.00
2022-12-27T21:17:37.280Z,101673.09
2022-12-27T21:20:06.326Z,101677.44
2022-12-27T21:22:32.696Z,101677.56
2022-12-27T21:24:59.119Z,101666.19
2022-12-27T21:27:25.523Z,101663.69
2022-12-27T21:29:51.916Z,101643.13
2022-12-27T21:32:18.297Z,101645.78
2022-12-27T21:34:44.817Z,101641.13
2022-12-27T21:37:13.494Z,101640.38
2022-12-27T21:39:40.229Z,101647.00
2022-12-27T21:42:06.799Z,101638.16
2022-12-27T21:44:35.252Z,101630.03
2022-12-27T21:47:01.727Z,101608.72
2022-12-27T21:49:28.132Z,101614.91
2022-12-27T21:51:55.662Z,101617.03
2022-12-27T21:54:22.188Z,101629.41
2022-12-27T21:56:48.954Z,101624.22
2022-12-27T21:59:15.422Z,101640.38
2022-12-27T22:01:50.124Z,101631.97
2022-12-27T22:04:20.872Z,101637.03
2022-12-27T22:06:50.973Z,101626.44
2022-12-27T22:09:19.157Z,101627.44
2022-12-27T22:11:46.096Z,101638.16
2022-12-27T22:14:15.371Z,101617.34
2022-12-27T22:16:41.832Z,101621.72
2022-12-27T22:19:10.810Z,101611.16
2022-12-27T22:21:38.398Z,101595.81
2022-12-27T22:24:05.923Z,101600.88
2022-12-27T22:26:37.005Z,101586.53
2022-12-27T22:29:04.749Z,101577.13
2022-12-27T22:31:35.175Z,101581.03
2022-12-27T22:34:03.426Z,101573.16
2022-12-27T22:36:30.129Z,101553.69
2022-12-27T22:38:58.518Z,101555.69
2022-12-27T22:41:30.635Z,101541.59
2022-12-27T22:44:08.477Z,101550.16
2022-12-27T22:49:21.750Z,101533.50
2022-12-27T22:51:48.261Z,101518.06
2022-12-27T22:54:14.653Z,101511.91
2022-12-27T22:56:42.429Z,101511.25
2022-12-27T22:59:13.218Z,101503.91
2022-12-27T23:01:41.269Z,101502.59
2022-12-27T23:04:10.793Z,101487.56
2022-12-27T23:06:37.565Z,101496.03
2022-12-27T23:09:04.311Z,101482.50
2022-12-27T23:11:33.825Z,101469.38
2022-12-27T23:14:16.175Z,101468.09
2022-12-27T23:16:45.269Z,101470.97
2022-12-27T23:19:13.213Z,101472.97
2022-12-27T23:21:39.732Z,101471.31
2022-12-27T23:24:06.941Z,101464.66
2022-12-27T23:26:33.374Z,101467.38
2022-12-27T23:28:59.840Z,101461.19
2022-12-27T23:31:27.167Z,101446.81
2022-12-27T23:33:54.432Z,101440.72
2022-12-27T23:36:21.078Z,101434.69
2022-12-27T23:38:48.546Z,101423.84
2022-12-27T23:41:22.801Z,101412.47
2022-12-27T23:43:53.247Z,101413.13
2022-12-27T23:46:27.938Z,101406.28
2022-12-27T23:48:56.754Z,101393.88
2022-12-27T23:51:23.939Z,101400.53
2022-12-27T23:53:50.533Z,101389.16
2022-12-27T23:56:27.261Z,101383.88
2022-12-27T23:58:55.461Z,101364.09
